JLY250 SKBO-GOBD
Flight info
| Callsign | JLY250 |
|---|---|
| Flight time | N/A |
| Altitude | 33000 |
| Route | DANSA4RXAKROB/14R MAVDA UW20 AUC DCT MIQ UN669 AGBEL/N0495F350 UN669 ELJEZ/M084F350 DCT 2150N DCT 2340N DCT 22N036W DCT ERNEK/N0490F370 DCT EVKAS DCT BVT DCT MOGSA DCT PIVSA |
| Aircraft | B77W/H-SDE1E2E3FGHIJ2J3J4J5M1RWXY/LB1D1 |
Departure
| Time | N/A |
|---|---|
| Airport | El Dorado International Airport (SKBO) |
Arrival
| Time | 2026-04-25 18:44 |
|---|---|
| Airport | Blaise Diagne International Airport (GOBD) |
| Time | Latitude | Longitude | Altitude | Speed | Heading |
|---|---|---|---|---|---|
| 2026-04-25 17:55 | 15.94363 | -22.52988 | 35040 ft | 529 kts | 121° |
| 2026-04-25 17:55 | 15.92582 | -22.49650 | 34992 ft | 527 kts | 121° |
| 2026-04-25 17:56 | 15.89045 | -22.43027 | 34943 ft | 528 kts | 121° |
| 2026-04-25 17:56 | 15.85472 | -22.36342 | 34950 ft | 534 kts | 121° |
| 2026-04-25 17:57 | 15.81827 | -22.29528 | 34935 ft | 544 kts | 120° |
| 2026-04-25 17:57 | 15.78134 | -22.22624 | 34939 ft | 550 kts | 120° |
| 2026-04-25 17:58 | 15.74391 | -22.15632 | 34932 ft | 554 kts | 120° |
| 2026-04-25 17:58 | 15.70633 | -22.08618 | 34930 ft | 556 kts | 120° |
| 2026-04-25 17:59 | 15.66866 | -22.01598 | 34921 ft | 556 kts | 120° |
| 2026-04-25 17:59 | 15.63126 | -21.94633 | 34928 ft | 555 kts | 120° |
| 2026-04-25 18:00 | 15.59370 | -21.87645 | 34923 ft | 554 kts | 121° |
| 2026-04-25 18:00 | 15.55619 | -21.80674 | 34921 ft | 552 kts | 120° |
| 2026-04-25 18:01 | 15.51877 | -21.73726 | 34918 ft | 550 kts | 120° |
| 2026-04-25 18:01 | 15.48145 | -21.66803 | 34916 ft | 549 kts | 120° |
| 2026-04-25 18:02 | 15.44413 | -21.59888 | 34918 ft | 549 kts | 120° |
| 2026-04-25 18:02 | 15.40684 | -21.52983 | 34917 ft | 549 kts | 120° |
| 2026-04-25 18:03 | 15.37009 | -21.46185 | 34910 ft | 549 kts | 120° |
| 2026-04-25 18:03 | 15.33265 | -21.39268 | 34912 ft | 550 kts | 120° |
| 2026-04-25 18:04 | 15.29523 | -21.32357 | 34907 ft | 550 kts | 120° |
| 2026-04-25 18:04 | 15.25778 | -21.25449 | 34911 ft | 549 kts | 120° |
| 2026-04-25 18:05 | 15.22033 | -21.18547 | 34915 ft | 549 kts | 120° |
| 2026-04-25 18:05 | 15.18293 | -21.11660 | 34912 ft | 548 kts | 120° |
| 2026-04-25 18:06 | 15.14554 | -21.04783 | 34910 ft | 548 kts | 120° |
| 2026-04-25 18:06 | 15.10837 | -20.97950 | 34910 ft | 548 kts | 120° |
| 2026-04-25 18:07 | 15.07093 | -20.91075 | 34911 ft | 548 kts | 120° |
| 2026-04-25 18:07 | 15.03344 | -20.84197 | 34904 ft | 548 kts | 120° |
| 2026-04-25 18:08 | 14.99597 | -20.77330 | 34901 ft | 548 kts | 120° |
| 2026-04-25 18:08 | 14.95858 | -20.70481 | 34908 ft | 547 kts | 120° |
| 2026-04-25 18:09 | 14.92117 | -20.63636 | 34904 ft | 546 kts | 120° |
| 2026-04-25 18:09 | 14.88372 | -20.56789 | 34902 ft | 545 kts | 120° |
| 2026-04-25 18:10 | 14.84658 | -20.50005 | 34903 ft | 545 kts | 120° |
| 2026-04-25 18:10 | 14.80922 | -20.43188 | 34901 ft | 545 kts | 120° |
| 2026-04-25 18:11 | 14.77183 | -20.36368 | 34899 ft | 545 kts | 120° |
| 2026-04-25 18:11 | 14.73443 | -20.29553 | 34899 ft | 545 kts | 120° |
| 2026-04-25 18:12 | 14.69735 | -20.22719 | 34893 ft | 544 kts | 117° |
| 2026-04-25 18:12 | 14.66866 | -20.15499 | 34898 ft | 543 kts | 108° |
| 2026-04-25 18:13 | 14.64559 | -20.08066 | 34900 ft | 543 kts | 107° |
| 2026-04-25 18:13 | 14.62241 | -20.00640 | 34898 ft | 543 kts | 108° |
| 2026-04-25 18:14 | 14.58700 | -19.89557 | 34895 ft | 543 kts | 108° |
| 2026-04-25 18:14 | 14.56313 | -19.82147 | 34892 ft | 543 kts | 108° |
| 2026-04-25 18:15 | 14.53927 | -19.74743 | 34893 ft | 543 kts | 108° |
| 2026-04-25 18:15 | 14.51547 | -19.67354 | 34703 ft | 540 kts | 108° |
| 2026-04-25 18:16 | 14.50361 | -19.63675 | 34377 ft | 541 kts | 108° |
| 2026-04-25 18:16 | 14.49167 | -19.59972 | 34001 ft | 544 kts | 108° |
| 2026-04-25 18:16 | 14.46768 | -19.52538 | 33137 ft | 547 kts | 108° |
| 2026-04-25 18:17 | 14.45563 | -19.48809 | 32696 ft | 549 kts | 107° |
| 2026-04-25 18:17 | 14.44355 | -19.45075 | 32303 ft | 549 kts | 107° |
| 2026-04-25 18:17 | 14.43557 | -19.42606 | 32045 ft | 548 kts | 107° |
| 2026-04-25 18:17 | 14.42349 | -19.38873 | 31601 ft | 549 kts | 107° |
| 2026-04-25 18:18 | 14.40743 | -19.33916 | 30945 ft | 551 kts | 107° |
| 2026-04-25 18:18 | 14.39921 | -19.31379 | 30598 ft | 552 kts | 107° |
| 2026-04-25 18:18 | 14.38700 | -19.27611 | 30053 ft | 553 kts | 107° |
| 2026-04-25 18:18 | 14.37496 | -19.23900 | 29453 ft | 554 kts | 107° |
| 2026-04-25 18:19 | 14.36273 | -19.20131 | 28840 ft | 554 kts | 107° |
| 2026-04-25 18:19 | 14.35047 | -19.16358 | 28218 ft | 554 kts | 107° |
| 2026-04-25 18:19 | 14.33827 | -19.12603 | 27715 ft | 551 kts | 107° |
| 2026-04-25 18:19 | 14.32612 | -19.08869 | 27374 ft | 546 kts | 107° |
| 2026-04-25 18:20 | 14.31409 | -19.05172 | 27062 ft | 541 kts | 107° |
| 2026-04-25 18:20 | 14.30218 | -19.01516 | 26753 ft | 536 kts | 108° |
| 2026-04-25 18:20 | 14.29034 | -18.97883 | 26425 ft | 533 kts | 108° |
| 2026-04-25 18:20 | 14.27857 | -18.94270 | 26089 ft | 530 kts | 108° |
| 2026-04-25 18:21 | 14.26685 | -18.90677 | 25778 ft | 527 kts | 108° |
| 2026-04-25 18:21 | 14.25522 | -18.87110 | 25477 ft | 524 kts | 108° |
| 2026-04-25 18:21 | 14.24363 | -18.83563 | 25188 ft | 521 kts | 108° |
| 2026-04-25 18:21 | 14.23210 | -18.80033 | 24938 ft | 518 kts | 108° |
| 2026-04-25 18:22 | 14.22061 | -18.76517 | 24702 ft | 515 kts | 108° |
| 2026-04-25 18:22 | 14.21289 | -18.74156 | 24499 ft | 514 kts | 108° |
| 2026-04-25 18:22 | 14.19780 | -18.69542 | 24113 ft | 513 kts | 108° |
| 2026-04-25 18:22 | 14.18644 | -18.66073 | 23911 ft | 509 kts | 108° |
| 2026-04-25 18:23 | 14.17516 | -18.62628 | 23698 ft | 506 kts | 108° |
| 2026-04-25 18:23 | 14.16393 | -18.59203 | 23564 ft | 502 kts | 108° |
| 2026-04-25 18:23 | 14.15281 | -18.55812 | 23406 ft | 498 kts | 108° |
| 2026-04-25 18:23 | 14.14176 | -18.52443 | 23172 ft | 495 kts | 108° |
| 2026-04-25 18:24 | 14.13073 | -18.49081 | 22908 ft | 494 kts | 108° |
| 2026-04-25 18:24 | 14.11975 | -18.45735 | 22632 ft | 493 kts | 108° |
| 2026-04-25 18:24 | 14.10879 | -18.42399 | 22415 ft | 491 kts | 108° |
| 2026-04-25 18:24 | 14.09794 | -18.39099 | 21915 ft | 488 kts | 108° |
| 2026-04-25 18:25 | 14.08702 | -18.35780 | 21655 ft | 488 kts | 108° |
| 2026-04-25 18:25 | 14.07617 | -18.32482 | 21524 ft | 484 kts | 109° |
| 2026-04-25 18:25 | 14.06538 | -18.29206 | 21294 ft | 483 kts | 109° |
| 2026-04-25 18:25 | 14.05460 | -18.25932 | 21096 ft | 481 kts | 109° |
| 2026-04-25 18:26 | 14.04384 | -18.22669 | 20873 ft | 480 kts | 109° |
| 2026-04-25 18:26 | 14.03314 | -18.19422 | 20691 ft | 478 kts | 109° |
| 2026-04-25 18:26 | 14.02259 | -18.16223 | 20465 ft | 478 kts | 109° |
| 2026-04-25 18:26 | 14.01190 | -18.12984 | 20305 ft | 476 kts | 109° |
| 2026-04-25 18:27 | 14.00128 | -18.09768 | 20199 ft | 472 kts | 109° |
| 2026-04-25 18:27 | 13.99073 | -18.06574 | 20075 ft | 470 kts | 109° |
| 2026-04-25 18:27 | 13.98227 | -18.03356 | 19737 ft | 465 kts | 96° |
| 2026-04-25 18:27 | 13.98357 | -18.00030 | 19431 ft | 467 kts | 78° |
| 2026-04-25 18:28 | 13.99342 | -17.96863 | 19243 ft | 464 kts | 64° |
| 2026-04-25 18:28 | 14.01014 | -17.94051 | 19087 ft | 457 kts | 52° |
| 2026-04-25 18:28 | 14.02826 | -17.91370 | 18751 ft | 459 kts | 57° |
| 2026-04-25 18:29 | 14.05470 | -17.85543 | 17267 ft | 452 kts | 67° |
| 2026-04-25 18:29 | 14.06673 | -17.82533 | 16989 ft | 455 kts | 66° |
| 2026-04-25 18:30 | 14.10257 | -17.73743 | 15989 ft | 429 kts | 66° |
| 2026-04-25 18:30 | 14.11420 | -17.70925 | 15053 ft | 423 kts | 67° |
| 2026-04-25 18:30 | 14.12568 | -17.68150 | 14143 ft | 419 kts | 67° |
| 2026-04-25 18:30 | 14.13701 | -17.65412 | 13239 ft | 416 kts | 68° |
| 2026-04-25 18:31 | 14.14860 | -17.62602 | 12584 ft | 423 kts | 68° |
| 2026-04-25 18:31 | 14.15978 | -17.59896 | 12305 ft | 399 kts | 68° |
| 2026-04-25 18:31 | 14.17038 | -17.57331 | 11955 ft | 382 kts | 68° |
| 2026-04-25 18:31 | 14.18057 | -17.54859 | 11674 ft | 366 kts | 68° |
| 2026-04-25 18:32 | 14.19045 | -17.52463 | 11183 ft | 360 kts | 68° |
| 2026-04-25 18:32 | 14.20015 | -17.50108 | 10726 ft | 354 kts | 68° |
| 2026-04-25 18:32 | 14.20956 | -17.47823 | 10271 ft | 349 kts | 68° |
| 2026-04-25 18:32 | 14.21899 | -17.45531 | 9763 ft | 346 kts | 68° |
| 2026-04-25 18:33 | 14.22832 | -17.43262 | 9410 ft | 337 kts | 68° |
| 2026-04-25 18:33 | 14.23728 | -17.41083 | 9304 ft | 323 kts | 68° |
| 2026-04-25 18:33 | 14.24593 | -17.38982 | 9212 ft | 311 kts | 67° |
| 2026-04-25 18:33 | 14.25424 | -17.36961 | 9135 ft | 301 kts | 68° |
| 2026-04-25 18:34 | 14.26228 | -17.35004 | 9061 ft | 292 kts | 67° |
| 2026-04-25 18:34 | 14.27008 | -17.33107 | 9000 ft | 284 kts | 67° |
| 2026-04-25 18:34 | 14.27769 | -17.31255 | 8930 ft | 277 kts | 67° |
| 2026-04-25 18:34 | 14.28515 | -17.29439 | 8818 ft | 273 kts | 67° |
| 2026-04-25 18:35 | 14.29238 | -17.27676 | 8735 ft | 268 kts | 67° |
| 2026-04-25 18:35 | 14.29975 | -17.25882 | 8739 ft | 275 kts | 67° |
| 2026-04-25 18:35 | 14.30715 | -17.24079 | 8616 ft | 267 kts | 67° |
| 2026-04-25 18:35 | 14.31427 | -17.22343 | 8181 ft | 259 kts | 66° |
| 2026-04-25 18:36 | 14.32123 | -17.20645 | 7611 ft | 255 kts | 65° |
| 2026-04-25 18:36 | 14.32812 | -17.18964 | 7035 ft | 253 kts | 65° |
| 2026-04-25 18:36 | 14.33493 | -17.17304 | 6473 ft | 252 kts | 65° |
| 2026-04-25 18:36 | 14.34168 | -17.15656 | 5974 ft | 247 kts | 64° |
| 2026-04-25 18:37 | 14.34830 | -17.14043 | 5418 ft | 242 kts | 63° |
| 2026-04-25 18:37 | 14.35483 | -17.12450 | 4879 ft | 243 kts | 63° |
| 2026-04-25 18:37 | 14.36132 | -17.10865 | 4661 ft | 240 kts | 63° |
| 2026-04-25 18:37 | 14.36775 | -17.09295 | 4430 ft | 235 kts | 61° |
| 2026-04-25 18:38 | 14.37687 | -17.07964 | 4062 ft | 226 kts | 33° |
| 2026-04-25 18:38 | 14.39103 | -17.07410 | 3854 ft | 214 kts | 6° |
| 2026-04-25 18:38 | 14.40556 | -17.07230 | 3645 ft | 207 kts | 6° |
| 2026-04-25 18:38 | 14.41968 | -17.07110 | 3420 ft | 203 kts | 2° |
| 2026-04-25 18:39 | 14.43388 | -17.07073 | 3137 ft | 202 kts | 0° |
| 2026-04-25 18:39 | 14.44792 | -17.07075 | 3027 ft | 200 kts | 360° |
| 2026-04-25 18:39 | 14.46180 | -17.07085 | 3005 ft | 198 kts | 0° |
| 2026-04-25 18:39 | 14.47528 | -17.07097 | 2996 ft | 188 kts | 359° |
| 2026-04-25 18:40 | 14.48818 | -17.07110 | 2993 ft | 180 kts | 360° |
| 2026-04-25 18:40 | 14.50044 | -17.07121 | 2995 ft | 174 kts | 359° |
| 2026-04-25 18:40 | 14.51200 | -17.07133 | 2908 ft | 166 kts | 360° |
| 2026-04-25 18:40 | 14.52321 | -17.07143 | 2759 ft | 158 kts | 0° |
| 2026-04-25 18:41 | 14.53410 | -17.07153 | 2534 ft | 156 kts | 0° |
| 2026-04-25 18:41 | 14.54514 | -17.07164 | 2349 ft | 158 kts | 359° |
| 2026-04-25 18:41 | 14.55596 | -17.07175 | 2156 ft | 150 kts | 1° |
| 2026-04-25 18:41 | 14.56622 | -17.07184 | 1949 ft | 147 kts | 1° |
| 2026-04-25 18:42 | 14.57660 | -17.07193 | 1764 ft | 149 kts | 2° |
| 2026-04-25 18:42 | 14.58335 | -17.07200 | 1649 ft | 143 kts | 2° |
| 2026-04-25 18:42 | 14.59686 | -17.07212 | 1394 ft | 149 kts | 1° |
| 2026-04-25 18:42 | 14.60730 | -17.07222 | 1201 ft | 151 kts | 0° |
| 2026-04-25 18:43 | 14.61741 | -17.07232 | 1004 ft | 140 kts | 360° |
| 2026-04-25 18:43 | 14.62692 | -17.07241 | 873 ft | 138 kts | 0° |
| 2026-04-25 18:43 | 14.63681 | -17.07249 | 675 ft | 144 kts | 358° |
| 2026-04-25 18:43 | 14.64688 | -17.07267 | 487 ft | 144 kts | 360° |
| 2026-04-25 18:44 | 14.65673 | -17.07266 | 316 ft | 142 kts | 358° |
| 2026-04-25 18:44 | 14.66597 | -17.07279 | 304 ft | 115 kts | 359° |
| 2026-04-25 18:44 | 14.67211 | -17.07283 | 301 ft | 62 kts | 360° |
| 2026-04-25 18:44 | 14.67516 | -17.07285 | 297 ft | 38 kts | 3° |
| 2026-04-25 18:45 | 14.67705 | -17.07243 | 295 ft | 22 kts | 21° |
| 2026-04-25 18:45 | 14.67801 | -17.07193 | 295 ft | 11 kts | 28° |
| 2026-04-25 18:45 | 14.67847 | -17.07135 | 291 ft | 10 kts | 84° |
| 2026-04-25 18:45 | 14.67804 | -17.07101 | 295 ft | 9 kts | 172° |
| 2026-04-25 18:46 | 14.67745 | -17.07097 | 293 ft | 7 kts | 178° |
| 2026-04-25 18:46 | 14.67701 | -17.07096 | 294 ft | 6 kts | 179° |
| 2026-04-25 18:46 | 14.67658 | -17.07096 | 295 ft | 6 kts | 179° |
| 2026-04-25 18:46 | 14.67615 | -17.07095 | 295 ft | 7 kts | 179° |
| 2026-04-25 18:47 | 14.67548 | -17.07084 | 300 ft | 11 kts | 142° |
| 2026-04-25 18:47 | 14.67536 | -17.07006 | 297 ft | 11 kts | 73° |
| 2026-04-25 18:47 | 14.67609 | -17.06984 | 297 ft | 12 kts | 358° |
| 2026-04-25 18:47 | 14.67695 | -17.06985 | 295 ft | 10 kts | 359° |
| 2026-04-25 18:48 | 14.67759 | -17.06986 | 297 ft | 9 kts | 0° |
| 2026-04-25 18:48 | 14.67780 | -17.06966 | 297 ft | 3 kts | 89° |
| 2026-04-25 18:48 | 14.67776 | -17.06940 | 295 ft | 4 kts | 97° |
| 2026-04-25 18:48 | 14.67774 | -17.06907 | 296 ft | 5 kts | 88° |
| 2026-04-25 18:49 | 14.67774 | -17.06888 | 296 ft | 1 kts | 89° |
| 2026-04-25 18:49 | 14.67775 | -17.06888 | 296 ft | 0 kts | 89° |